createdAt,value
2023-03-02T00:01:28.780Z,2.05
2023-03-02T00:03:59.585Z,1.92
2023-03-02T00:06:29.519Z,2.13
2023-03-02T00:09:02.985Z,2.10
2023-03-02T00:11:31.861Z,1.90
2023-03-02T00:13:59.561Z,2.15
2023-03-02T00:16:26.880Z,2.42
2023-03-02T00:18:54.008Z,2.05
2023-03-02T00:21:21.158Z,2.45
2023-03-02T00:23:48.390Z,3.30
2023-03-02T00:26:15.481Z,2.15
2023-03-02T00:28:42.802Z,2.40
2023-03-02T00:31:11.036Z,2.10
2023-03-02T00:33:38.143Z,1.95
2023-03-02T00:36:05.673Z,2.15
2023-03-02T00:38:32.945Z,2.63
2023-03-02T00:41:00.175Z,2.25
2023-03-02T00:43:28.219Z,2.38
2023-03-02T00:45:55.802Z,2.33
2023-03-02T00:48:23.084Z,2.77
2023-03-02T00:50:50.315Z,2.17
2023-03-02T00:53:18.209Z,1.73
2023-03-02T00:55:54.571Z,2.22
2023-03-02T00:58:23.085Z,2.00
2023-03-02T01:00:50.558Z,2.20
2023-03-02T01:03:17.923Z,2.10
2023-03-02T01:05:45.297Z,1.65
2023-03-02T01:08:12.924Z,2.00
2023-03-02T01:10:40.715Z,2.00
2023-03-02T01:13:08.398Z,1.10
2023-03-02T01:15:35.498Z,2.10
2023-03-02T01:18:02.796Z,2.60
2023-03-02T01:20:30.041Z,1.70
2023-03-02T01:22:57.888Z,2.03
2023-03-02T01:25:25.346Z,1.67
2023-03-02T01:27:52.522Z,1.83
2023-03-02T01:30:19.715Z,3.00
2023-03-02T01:32:46.889Z,2.28
2023-03-02T01:35:14.160Z,1.77
2023-03-02T01:37:41.736Z,1.45
2023-03-02T01:40:10.719Z,1.60
2023-03-02T01:42:40.345Z,2.00
2023-03-02T01:45:43.243Z,2.58
2023-03-02T01:48:12.853Z,1.65
2023-03-02T01:50:40.255Z,2.03
2023-03-02T01:53:08.618Z,1.80
2023-03-02T01:55:39.057Z,1.70
2023-03-02T01:58:07.383Z,1.30
2023-03-02T02:00:38.368Z,1.90
2023-03-02T02:03:21.255Z,1.90
2023-03-02T02:06:00.722Z,1.70
2023-03-02T02:08:28.548Z,1.83
2023-03-02T02:10:55.927Z,1.98
2023-03-02T02:13:23.351Z,1.48
2023-03-02T02:15:51.094Z,1.80
2023-03-02T02:18:18.808Z,1.85
2023-03-02T02:20:48.929Z,1.52
2023-03-02T02:23:31.707Z,1.00
2023-03-02T02:26:29.373Z,1.60
2023-03-02T02:29:25.315Z,1.73
2023-03-02T02:32:01.471Z,1.38
2023-03-02T02:34:28.681Z,1.60
2023-03-02T02:37:07.860Z,2.00
2023-03-02T02:39:39.243Z,1.77
2023-03-02T02:42:16.481Z,1.45
2023-03-02T02:44:43.980Z,1.25
2023-03-02T02:47:20.557Z,1.02
2023-03-02T02:49:51.934Z,1.40
2023-03-02T02:52:24.562Z,1.95
2023-03-02T02:54:54.937Z,1.55
2023-03-02T02:57:29.134Z,1.58
2023-03-02T02:59:59.622Z,1.75
2023-03-02T03:02:31.044Z,1.95
2023-03-02T03:05:03.057Z,1.23
2023-03-02T03:07:33.125Z,1.52
2023-03-02T03:10:24.674Z,1.58
2023-03-02T03:12:52.582Z,1.88
2023-03-02T03:15:21.892Z,1.70
2023-03-02T03:17:55.553Z,1.70
2023-03-02T03:20:24.096Z,1.38
2023-03-02T03:22:53.528Z,1.30
2023-03-02T03:25:25.154Z,1.40
2023-03-02T03:27:52.722Z,2.13
2023-03-02T03:30:20.838Z,1.90
2023-03-02T03:32:48.621Z,1.98
2023-03-02T03:35:16.879Z,1.85
2023-03-02T03:37:45.822Z,1.80
2023-03-02T03:40:15.150Z,1.50
2023-03-02T03:42:44.698Z,2.47
2023-03-02T03:45:13.367Z,2.40
2023-03-02T03:47:42.344Z,1.48
2023-03-02T03:50:11.004Z,1.70
2023-03-02T03:52:38.904Z,2.13
2023-03-02T03:55:16.068Z,2.28
2023-03-02T03:57:45.495Z,1.67
2023-03-02T04:00:18.852Z,2.00
2023-03-02T04:02:55.047Z,1.90
2023-03-02T04:05:23.498Z,1.98
2023-03-02T04:07:53.480Z,2.03
2023-03-02T04:10:21.702Z,2.07
2023-03-02T04:12:50.922Z,2.65
2023-03-02T04:15:18.665Z,1.80
2023-03-02T04:17:47.841Z,1.60
2023-03-02T04:20:20.362Z,1.63
2023-03-02T04:22:53.111Z,2.07
2023-03-02T04:25:23.127Z,1.73
2023-03-02T04:27:54.569Z,1.90
2023-03-02T04:30:25.656Z,1.70
2023-03-02T04:32:53.569Z,1.40
2023-03-02T04:35:22.080Z,1.33
2023-03-02T04:37:49.438Z,1.73
2023-03-02T04:40:17.767Z,1.30
2023-03-02T04:42:44.991Z,1.97
2023-03-02T04:45:13.359Z,2.00
2023-03-02T04:47:41.456Z,1.52
2023-03-02T04:50:11.521Z,1.70
2023-03-02T04:52:38.851Z,1.98
2023-03-02T04:55:06.927Z,1.50
2023-03-02T04:57:34.258Z,1.97
2023-03-02T05:00:01.381Z,2.13
2023-03-02T05:02:28.589Z,1.80
2023-03-02T05:04:55.914Z,1.77
2023-03-02T05:07:23.178Z,2.60
2023-03-02T05:09:50.285Z,2.07
2023-03-02T05:12:19.294Z,1.80
2023-03-02T05:14:46.448Z,2.00
2023-03-02T05:17:14.062Z,1.90
2023-03-02T05:19:41.299Z,2.13
2023-03-02T05:22:08.702Z,2.07
2023-03-02T05:24:35.899Z,1.63
2023-03-02T05:27:03.070Z,1.33
2023-03-02T05:29:30.211Z,1.40
2023-03-02T05:31:57.557Z,1.33
2023-03-02T05:34:24.768Z,1.30
2023-03-02T05:36:51.922Z,1.80
2023-03-02T05:39:19.166Z,1.70
2023-03-02T05:41:46.336Z,1.47
2023-03-02T05:44:13.484Z,1.33
2023-03-02T05:46:40.781Z,1.90
2023-03-02T05:49:08.324Z,1.90
2023-03-02T05:51:35.520Z,1.83
2023-03-02T05:54:02.593Z,1.83
2023-03-02T05:56:30.350Z,1.77
2023-03-02T05:58:57.620Z,2.20
2023-03-02T06:01:24.934Z,1.63
2023-03-02T06:03:52.116Z,1.93
2023-03-02T06:06:19.231Z,1.90
2023-03-02T06:08:46.370Z,1.80
2023-03-02T06:11:13.648Z,1.63
2023-03-02T06:13:41.113Z,1.87
2023-03-02T06:16:09.171Z,2.03
2023-03-02T06:18:39.229Z,2.10
2023-03-02T06:21:07.597Z,1.87
2023-03-02T06:23:34.729Z,2.00
2023-03-02T06:26:09.514Z,1.87
2023-03-02T06:28:49.833Z,1.90
2023-03-02T06:31:19.186Z,1.70
2023-03-02T06:33:46.299Z,1.87
2023-03-02T06:36:15.236Z,2.67
2023-03-02T06:38:42.431Z,1.80
2023-03-02T06:41:09.828Z,2.07
2023-03-02T06:43:37.046Z,1.43
2023-03-02T06:46:04.560Z,2.23
2023-03-02T06:48:31.827Z,2.70
2023-03-02T06:50:59.099Z,1.70
2023-03-02T06:53:26.285Z,2.87
2023-03-02T06:55:53.732Z,3.27
2023-03-02T06:58:20.970Z,2.07
2023-03-02T07:00:48.264Z,1.60
2023-03-02T07:03:15.416Z,2.30
2023-03-02T07:05:45.116Z,2.00
2023-03-02T07:08:13.229Z,2.00
2023-03-02T07:10:40.356Z,2.20
2023-03-02T07:13:09.109Z,2.50
2023-03-02T07:15:39.352Z,2.10
2023-03-02T07:18:06.672Z,2.20
2023-03-02T07:20:34.368Z,2.20
2023-03-02T07:23:01.707Z,2.30
2023-03-02T07:25:28.852Z,1.57
2023-03-02T07:27:56.120Z,1.37
2023-03-02T07:30:23.437Z,2.33
2023-03-02T07:32:50.876Z,1.70
2023-03-02T07:35:18.335Z,1.80
2023-03-02T07:37:45.634Z,1.57
2023-03-02T07:40:13.680Z,3.00
2023-03-02T07:42:41.092Z,1.77
2023-03-02T07:45:09.019Z,2.20
2023-03-02T07:47:36.302Z,2.00
2023-03-02T07:50:04.312Z,2.10
2023-03-02T07:52:31.536Z,2.47
2023-03-02T07:54:58.764Z,1.70
2023-03-02T07:57:25.946Z,2.37
2023-03-02T07:59:53.055Z,2.60
2023-03-02T08:02:25.682Z,1.83
2023-03-02T08:04:53.650Z,2.67
2023-03-02T08:07:20.887Z,2.30
2023-03-02T08:09:48.433Z,2.43
2023-03-02T08:12:15.902Z,2.80
2023-03-02T08:14:43.189Z,2.37
2023-03-02T08:17:10.988Z,1.80
2023-03-02T08:19:38.256Z,2.53
2023-03-02T08:22:05.499Z,1.85
2023-03-02T08:24:32.872Z,2.30
2023-03-02T08:27:02.225Z,1.90
2023-03-02T08:29:29.729Z,2.37
2023-03-02T08:31:59.231Z,2.25
2023-03-02T08:34:27.089Z,2.67
2023-03-02T08:36:54.501Z,1.67
2023-03-02T08:39:25.025Z,2.43
2023-03-02T08:41:54.049Z,1.90
2023-03-02T08:44:23.550Z,2.33
2023-03-02T08:46:53.045Z,2.07
2023-03-02T08:49:22.163Z,2.90
2023-03-02T08:51:54.297Z,1.90
2023-03-02T08:54:23.162Z,1.80
2023-03-02T08:56:51.029Z,1.97
2023-03-02T08:59:19.058Z,1.87
2023-03-02T09:01:47.510Z,1.80
2023-03-02T09:04:15.474Z,2.63
2023-03-02T09:06:45.859Z,2.57
2023-03-02T09:09:15.535Z,2.47
2023-03-02T09:11:44.412Z,1.77
2023-03-02T09:14:12.470Z,2.40
2023-03-02T09:16:40.110Z,1.73
2023-03-02T09:19:09.168Z,1.57
2023-03-02T09:21:37.865Z,1.40
2023-03-02T09:24:06.621Z,1.70
2023-03-02T09:26:34.852Z,2.00
2023-03-02T09:29:02.950Z,1.83
2023-03-02T09:31:30.817Z,1.87
2023-03-02T09:33:58.170Z,2.20
2023-03-02T09:36:26.784Z,1.77
2023-03-02T09:38:55.374Z,1.67
2023-03-02T09:41:23.005Z,1.37
2023-03-02T09:44:34.417Z,3.28
2023-03-02T09:47:05.858Z,1.87
2023-03-02T09:50:05.925Z,1.48
2023-03-02T09:52:40.888Z,1.77
2023-03-02T09:55:20.776Z,1.75
2023-03-02T09:57:48.970Z,1.80
2023-03-02T10:00:33.468Z,1.90
2023-03-02T10:03:16.940Z,1.53
2023-03-02T10:05:50.763Z,1.75
2023-03-02T10:08:22.253Z,1.60
2023-03-02T10:11:28.196Z,2.08
2023-03-02T10:14:04.944Z,1.20
2023-03-02T10:16:42.686Z,1.35
2023-03-02T10:19:17.810Z,1.42
2023-03-02T10:21:49.331Z,1.33
2023-03-02T10:24:35.447Z,1.73
2023-03-02T10:27:12.644Z,1.48
2023-03-02T10:29:39.946Z,1.10
2023-03-02T10:32:10.245Z,1.65
2023-03-02T10:34:39.104Z,1.35
2023-03-02T10:37:20.460Z,1.60
2023-03-02T10:39:48.324Z,1.23
2023-03-02T10:42:36.663Z,1.65
2023-03-02T10:45:29.862Z,1.42
2023-03-02T10:48:05.823Z,1.20
2023-03-02T10:50:34.152Z,1.25
2023-03-02T10:53:04.833Z,2.80
2023-03-02T10:55:34.149Z,1.60
2023-03-02T10:58:20.307Z,1.52
2023-03-02T11:01:01.180Z,1.10
2023-03-02T11:03:32.652Z,1.48
2023-03-02T11:06:17.904Z,1.48
2023-03-02T11:08:45.146Z,2.03
2023-03-02T11:11:25.087Z,2.80
2023-03-02T11:13:52.883Z,1.88
2023-03-02T11:16:24.156Z,0.90
2023-03-02T11:19:08.572Z,1.30
2023-03-02T11:21:58.690Z,1.42
2023-03-02T11:24:32.026Z,0.82
2023-03-02T11:27:25.492Z,1.30
2023-03-02T11:30:16.433Z,1.73
2023-03-02T11:33:07.735Z,1.38
2023-03-02T11:35:53.413Z,1.95
2023-03-02T11:38:33.067Z,2.22
2023-03-02T11:41:39.356Z,1.48
2023-03-02T11:44:21.432Z,2.00
2023-03-02T11:46:58.052Z,1.70
2023-03-02T11:49:43.607Z,1.65
2023-03-02T11:52:23.783Z,2.20
2023-03-02T11:54:59.444Z,1.45
2023-03-02T11:57:40.602Z,1.38
2023-03-02T12:00:21.514Z,1.60
2023-03-02T12:02:59.879Z,1.45
2023-03-02T12:05:30.360Z,1.65
2023-03-02T12:08:07.163Z,2.00
2023-03-02T12:10:41.784Z,1.67
2023-03-02T12:13:17.479Z,1.13
2023-03-02T12:15:47.318Z,1.52
2023-03-02T12:18:23.875Z,0.95
2023-03-02T12:21:03.620Z,1.70
2023-03-02T12:23:33.148Z,3.28
2023-03-02T12:26:24.655Z,2.00
2023-03-02T12:29:01.066Z,2.00
2023-03-02T12:52:17.851Z,2.45
2023-03-02T12:54:45.139Z,1.65
2023-03-02T12:57:20.472Z,0.95
2023-03-02T13:00:00.083Z,1.40
2023-03-02T13:02:35.860Z,1.30
2023-03-02T13:05:08.015Z,1.85
2023-03-02T13:07:54.090Z,1.40
2023-03-02T13:10:28.286Z,2.28
2023-03-02T13:12:55.782Z,1.80
2023-03-02T13:15:23.047Z,1.73
2023-03-02T13:18:12.331Z,2.13
2023-03-02T13:20:39.757Z,2.83
2023-03-02T13:23:07.018Z,2.42
2023-03-02T13:25:34.192Z,1.30
2023-03-02T13:28:07.879Z,1.75
2023-03-02T13:30:37.598Z,1.10
2023-03-02T13:33:21.896Z,1.33
2023-03-02T13:35:49.256Z,1.40
2023-03-02T13:38:17.859Z,1.83
2023-03-02T13:40:48.537Z,1.83
2023-03-02T13:43:38.348Z,1.58
2023-03-02T13:46:15.880Z,1.70
2023-03-02T13:49:09.675Z,2.72
2023-03-02T13:51:48.017Z,1.90
2023-03-02T13:54:20.170Z,2.17
2023-03-02T13:56:47.614Z,2.20
2023-03-02T13:59:16.814Z,2.50
2023-03-02T14:01:44.676Z,2.15
2023-03-02T14:04:14.443Z,1.48
2023-03-02T14:06:41.677Z,1.75
2023-03-02T14:09:09.021Z,1.92
2023-03-02T14:11:42.366Z,1.77
2023-03-02T14:14:16.347Z,1.80
2023-03-02T14:16:43.792Z,2.55
2023-03-02T14:19:16.526Z,1.92
2023-03-02T14:21:43.979Z,1.73
2023-03-02T14:24:11.759Z,1.90
2023-03-02T14:26:49.949Z,2.38
2023-03-02T14:29:26.838Z,1.83
2023-03-02T14:31:55.849Z,2.45
2023-03-02T14:34:23.646Z,2.60
2023-03-02T14:36:54.595Z,2.13
2023-03-02T14:39:38.129Z,1.58
2023-03-02T14:42:10.148Z,2.35
2023-03-02T14:44:37.332Z,2.55
2023-03-02T14:47:04.715Z,2.60
2023-03-02T14:49:31.843Z,2.25
2023-03-02T14:52:25.030Z,2.40
2023-03-02T14:54:59.718Z,1.98
2023-03-02T14:57:29.203Z,2.65
2023-03-02T15:00:00.116Z,3.55
2023-03-02T15:02:27.798Z,2.28
2023-03-02T15:04:57.402Z,2.88
2023-03-02T15:07:27.426Z,2.60
2023-03-02T15:09:56.194Z,1.42
2023-03-02T15:12:23.951Z,1.40
2023-03-02T15:14:51.501Z,1.70
2023-03-02T15:17:18.984Z,2.15
2023-03-02T15:19:46.391Z,2.50
2023-03-02T15:22:14.396Z,2.28
2023-03-02T15:24:41.721Z,2.00
2023-03-02T15:27:09.090Z,1.77
2023-03-02T15:29:36.373Z,1.50
2023-03-02T15:32:03.865Z,2.40
2023-03-02T15:34:31.041Z,2.20
2023-03-02T15:36:58.865Z,2.28
2023-03-02T15:39:26.093Z,2.25
2023-03-02T15:41:54.127Z,2.53
2023-03-02T15:44:24.075Z,2.35
2023-03-02T15:46:53.884Z,2.40
2023-03-02T15:49:22.975Z,2.53
2023-03-02T15:51:52.132Z,2.17
2023-03-02T15:54:19.486Z,2.40
2023-03-02T15:56:52.115Z,3.00
2023-03-02T15:59:21.617Z,1.55
2023-03-02T16:01:49.007Z,3.75
2023-03-02T16:04:16.621Z,2.25
2023-03-02T16:06:44.235Z,2.20
2023-03-02T16:09:11.594Z,2.13
2023-03-02T16:11:39.094Z,2.60
2023-03-02T16:14:06.538Z,2.40
2023-03-02T16:16:33.798Z,2.35
2023-03-02T16:19:01.326Z,3.55
2023-03-02T16:21:29.277Z,1.85
2023-03-02T16:24:03.275Z,2.55
2023-03-02T16:26:32.597Z,3.15
2023-03-02T16:29:00.369Z,3.35
2023-03-02T16:31:28.538Z,2.10
2023-03-02T16:33:57.644Z,1.92
2023-03-02T16:36:26.407Z,2.25
2023-03-02T16:38:53.468Z,1.90
2023-03-02T16:41:22.860Z,2.15
2023-03-02T16:43:53.434Z,1.92
2023-03-02T16:46:22.282Z,2.10
2023-03-02T16:48:50.019Z,1.95
2023-03-02T16:51:18.866Z,2.25
2023-03-02T16:53:46.473Z,1.95
2023-03-02T16:56:14.792Z,2.53
2023-03-02T16:58:43.169Z,2.90
2023-03-02T17:01:16.623Z,1.98
2023-03-02T17:03:45.242Z,1.67
2023-03-02T17:06:14.273Z,3.03
2023-03-02T17:08:41.860Z,2.28
2023-03-02T17:11:09.486Z,1.85
2023-03-02T17:13:36.732Z,3.50
2023-03-02T17:16:04.526Z,2.55
2023-03-02T17:18:33.213Z,2.05
2023-03-02T17:21:00.982Z,2.47
2023-03-02T17:23:28.593Z,2.22
2023-03-02T17:25:56.318Z,2.20
2023-03-02T17:28:23.913Z,2.10
2023-03-02T17:30:51.198Z,2.22
2023-03-02T17:33:18.561Z,1.80
2023-03-02T17:35:46.454Z,1.80
2023-03-02T17:38:14.943Z,2.30
2023-03-02T17:40:42.825Z,2.28
2023-03-02T17:43:10.182Z,2.35
2023-03-02T17:45:37.525Z,2.05
2023-03-02T17:48:05.125Z,12.32
2023-03-02T17:50:33.163Z,5.38
2023-03-02T17:53:00.538Z,2.35
2023-03-02T17:55:27.934Z,3.33
2023-03-02T17:57:55.456Z,2.63
2023-03-02T18:00:23.721Z,3.28
2023-03-02T18:02:51.556Z,2.72
2023-03-02T18:05:19.367Z,3.03
2023-03-02T18:07:47.398Z,3.53
2023-03-02T18:10:14.797Z,2.90
2023-03-02T18:12:41.970Z,2.65
2023-03-02T18:15:09.719Z,1.92
2023-03-02T18:17:37.091Z,2.10
2023-03-02T18:20:05.066Z,2.20
2023-03-02T18:22:32.588Z,1.42
2023-03-02T18:24:59.774Z,2.35
2023-03-02T18:27:27.224Z,2.38
2023-03-02T18:29:54.620Z,3.83
2023-03-02T18:32:21.920Z,2.33
2023-03-02T18:34:49.087Z,2.70
2023-03-02T18:37:16.369Z,2.83
2023-03-02T18:39:43.934Z,3.13
2023-03-02T18:42:12.712Z,2.67
2023-03-02T18:44:40.167Z,4.30
2023-03-02T18:47:07.777Z,6.63
2023-03-02T18:49:35.035Z,4.47
2023-03-02T18:52:05.954Z,8.10
2023-03-02T18:54:33.401Z,3.88
2023-03-02T18:57:01.784Z,3.95
2023-03-02T18:59:29.850Z,2.83
2023-03-02T19:01:57.669Z,4.35
2023-03-02T19:04:26.737Z,4.25
2023-03-02T19:06:56.320Z,4.95
2023-03-02T19:09:24.175Z,3.40
2023-03-02T19:11:51.464Z,4.10
2023-03-02T19:14:19.005Z,2.38
2023-03-02T19:16:46.357Z,2.10
2023-03-02T19:19:13.711Z,2.80
2023-03-02T19:21:41.207Z,2.20
2023-03-02T19:24:09.135Z,3.67
2023-03-02T19:26:36.679Z,2.63
2023-03-02T19:29:04.902Z,2.97
2023-03-02T19:31:33.034Z,2.00
2023-03-02T19:34:00.537Z,2.05
2023-03-02T19:36:27.804Z,2.20
2023-03-02T19:38:55.101Z,2.15
2023-03-02T19:41:22.694Z,2.13
2023-03-02T19:43:50.394Z,2.38
2023-03-02T19:46:18.329Z,2.10
2023-03-02T19:48:45.895Z,2.33
2023-03-02T19:51:16.035Z,2.30
2023-03-02T19:53:44.293Z,2.03
2023-03-02T19:56:14.834Z,2.00
2023-03-02T19:58:53.908Z,2.80
2023-03-02T20:01:22.285Z,1.65
2023-03-02T20:03:53.159Z,10.48
2023-03-02T20:06:26.766Z,22.40
2023-03-02T20:08:54.329Z,9.60
2023-03-02T20:11:22.646Z,33.42
2023-03-02T20:13:50.683Z,18.90
2023-03-02T20:16:19.780Z,11.75
2023-03-02T20:18:47.199Z,5.13
2023-03-02T20:21:14.392Z,5.05
2023-03-02T20:23:41.785Z,5.32
2023-03-02T20:26:09.545Z,3.90
2023-03-02T20:28:37.201Z,4.88
2023-03-02T20:31:09.209Z,3.28
2023-03-02T20:33:43.472Z,2.40
2023-03-02T20:36:12.127Z,2.40
2023-03-02T20:38:48.010Z,2.73
2023-03-02T20:41:16.958Z,2.97
2023-03-02T20:43:45.073Z,1.92
2023-03-02T20:46:26.500Z,1.67
2023-03-02T20:48:54.441Z,2.08
2023-03-02T20:51:22.874Z,1.67
2023-03-02T20:53:50.615Z,2.05
2023-03-02T20:56:19.355Z,1.77
2023-03-02T20:58:47.431Z,2.00
2023-03-02T21:01:17.571Z,3.05
2023-03-02T21:03:45.340Z,1.88
2023-03-02T21:06:13.725Z,2.20
2023-03-02T21:08:42.298Z,1.90
2023-03-02T21:11:13.566Z,1.60
2023-03-02T21:13:42.160Z,1.53
2023-03-02T21:16:09.735Z,1.30
2023-03-02T21:18:37.569Z,2.10
2023-03-02T21:21:05.268Z,1.88
2023-03-02T21:23:32.743Z,1.70
2023-03-02T21:26:00.299Z,1.00
2023-03-02T21:28:28.202Z,1.23
2023-03-02T21:30:55.520Z,1.42
2023-03-02T21:33:23.182Z,1.67
2023-03-02T21:35:50.420Z,1.33
2023-03-02T21:38:18.117Z,1.40
2023-03-02T21:40:48.106Z,1.48
2023-03-02T21:43:16.050Z,1.55
2023-03-02T21:45:43.566Z,1.77
2023-03-02T21:48:13.951Z,2.15
2023-03-02T21:50:41.994Z,1.20
2023-03-02T21:53:09.974Z,2.00
2023-03-02T21:55:38.105Z,2.90
2023-03-02T21:58:06.416Z,1.25
2023-03-02T22:00:36.460Z,2.00
2023-03-02T22:03:04.451Z,1.27
2023-03-02T22:05:33.153Z,3.15
2023-03-02T22:08:01.097Z,2.40
2023-03-02T22:10:50.069Z,1.48
2023-03-02T22:13:24.905Z,1.95
2023-03-02T22:16:14.388Z,1.17
2023-03-02T22:18:42.632Z,3.00
2023-03-02T22:21:32.058Z,1.30
2023-03-02T22:24:12.991Z,1.85
2023-03-02T22:26:44.633Z,1.63
2023-03-02T22:29:22.200Z,1.88
2023-03-02T22:31:51.630Z,1.67
2023-03-02T22:34:24.307Z,1.60
2023-03-02T22:36:52.111Z,1.60
2023-03-02T22:39:28.933Z,1.77
2023-03-02T22:42:12.720Z,1.50
2023-03-02T22:44:40.084Z,1.40
2023-03-02T22:47:26.046Z,0.90
2023-03-02T22:49:59.070Z,1.48
2023-03-02T22:52:35.897Z,2.03
2023-03-02T22:55:23.571Z,1.77
2023-03-02T22:57:51.075Z,3.15
2023-03-02T23:00:40.882Z,1.85
2023-03-02T23:03:19.537Z,2.03
2023-03-02T23:05:51.440Z,1.60
2023-03-02T23:08:31.562Z,1.53
2023-03-02T23:10:59.953Z,1.50
2023-03-02T23:13:39.353Z,1.43
2023-03-02T23:16:24.930Z,1.10
2023-03-02T23:18:55.008Z,1.30
2023-03-02T23:21:38.886Z,1.63
2023-03-02T23:24:08.689Z,0.82
2023-03-02T23:26:36.776Z,1.40
2023-03-02T23:29:04.227Z,1.20
2023-03-02T23:31:31.652Z,1.03
2023-03-02T23:33:59.209Z,0.90
2023-03-02T23:36:27.923Z,1.50
2023-03-02T23:38:55.426Z,1.38
2023-03-02T23:41:23.012Z,1.15
2023-03-02T23:43:50.482Z,1.40
2023-03-02T23:46:18.278Z,1.40
2023-03-02T23:48:46.048Z,1.30
2023-03-02T23:51:13.429Z,1.10
2023-03-02T23:53:40.779Z,0.93
2023-03-02T23:56:08.554Z,1.20
2023-03-02T23:58:36.025Z,1.90
